createdAt,value
2022-10-25T00:00:37.205Z,0
2022-10-25T00:01:35.010Z,0
2022-10-25T00:02:34.601Z,0
2022-10-25T00:03:34.171Z,0
2022-10-25T00:04:34.209Z,0
2022-10-25T00:05:36.841Z,0
2022-10-25T00:06:34.196Z,0
2022-10-25T00:07:34.203Z,0
2022-10-25T00:08:34.043Z,0
2022-10-25T00:09:34.216Z,0
2022-10-25T00:10:34.192Z,0
2022-10-25T00:11:36.955Z,0
2022-10-25T00:12:34.904Z,0
2022-10-25T00:13:34.218Z,0
2022-10-25T00:14:34.192Z,0
2022-10-25T00:15:34.260Z,0
2022-10-25T00:16:37.220Z,0
2022-10-25T00:17:34.258Z,0
2022-10-25T00:18:34.229Z,0
2022-10-25T00:19:34.202Z,0
2022-10-25T00:20:34.232Z,0
2022-10-25T00:21:34.251Z,0
2022-10-25T00:22:37.310Z,0
2022-10-25T00:23:34.209Z,0
2022-10-25T00:24:34.201Z,0
2022-10-25T00:25:34.245Z,0
2022-10-25T00:26:34.213Z,0
2022-10-25T00:27:35.846Z,0
2022-10-25T00:28:34.245Z,0
2022-10-25T00:29:34.259Z,0
2022-10-25T00:30:34.222Z,0
2022-10-25T00:31:34.302Z,0
2022-10-25T00:32:34.241Z,0
2022-10-25T00:33:37.122Z,0
2022-10-25T00:34:34.231Z,0
2022-10-25T00:35:34.232Z,0
2022-10-25T00:36:34.257Z,0
2022-10-25T00:37:34.473Z,0
2022-10-25T00:38:37.114Z,0
2022-10-25T00:39:34.264Z,0
2022-10-25T00:40:34.242Z,0
2022-10-25T00:41:34.287Z,0
2022-10-25T00:42:34.270Z,0
2022-10-25T00:43:34.243Z,0
2022-10-25T00:44:37.081Z,0
2022-10-25T00:45:34.286Z,0
2022-10-25T00:46:34.284Z,0
2022-10-25T00:47:34.450Z,0
2022-10-25T00:48:34.257Z,0
2022-10-25T00:49:37.129Z,0
2022-10-25T00:50:34.268Z,0
2022-10-25T00:51:34.268Z,0
2022-10-25T00:52:34.339Z,0
2022-10-25T00:53:34.302Z,0
2022-10-25T00:54:34.274Z,0
2022-10-25T00:55:34.296Z,0
2022-10-25T00:56:34.270Z,0
2022-10-25T00:57:34.314Z,0
2022-10-25T00:58:34.442Z,0
2022-10-25T00:59:34.272Z,0
2022-10-25T01:00:37.315Z,0
2022-10-25T01:01:35.029Z,0
2022-10-25T01:02:34.951Z,0
2022-10-25T01:03:34.300Z,0
2022-10-25T01:04:34.279Z,0
2022-10-25T01:05:34.348Z,0
2022-10-25T01:06:34.291Z,0
2022-10-25T01:07:34.336Z,0
2022-10-25T01:08:34.330Z,0
2022-10-25T01:09:34.364Z,0
2022-10-25T01:10:34.283Z,0
2022-10-25T01:11:37.333Z,0
2022-10-25T01:12:34.306Z,0
2022-10-25T01:13:34.323Z,0
2022-10-25T01:14:34.304Z,0
2022-10-25T01:15:34.487Z,0
2022-10-25T01:16:34.377Z,0
2022-10-25T01:17:34.293Z,0
2022-10-25T01:18:34.304Z,0
2022-10-25T01:20:34.307Z,0
2022-10-25T01:21:34.310Z,0
2022-10-25T01:22:37.436Z,0
2022-10-25T01:23:34.351Z,0
2022-10-25T01:24:34.342Z,0
2022-10-25T01:25:34.337Z,0
2022-10-25T01:26:34.325Z,0
2022-10-25T01:27:37.369Z,0
2022-10-25T01:28:34.358Z,0
2022-10-25T01:29:34.362Z,0
2022-10-25T01:30:34.327Z,0
2022-10-25T01:31:34.330Z,0
2022-10-25T01:32:34.362Z,0
2022-10-25T01:33:37.120Z,0
2022-10-25T01:34:34.344Z,0
2022-10-25T01:35:34.339Z,0
2022-10-25T01:36:34.339Z,0
2022-10-25T01:37:34.345Z,0
2022-10-25T01:38:38.611Z,0
2022-10-25T01:39:34.362Z,0
2022-10-25T01:40:34.377Z,0
2022-10-25T01:41:34.389Z,0
2022-10-25T01:42:34.377Z,0
2022-10-25T01:43:34.371Z,0
2022-10-25T01:44:38.599Z,0
2022-10-25T01:45:34.380Z,0
2022-10-25T01:46:34.361Z,0
2022-10-25T01:47:34.354Z,0
2022-10-25T01:48:34.412Z,0
2022-10-25T01:49:37.130Z,0
2022-10-25T01:50:34.415Z,0
2022-10-25T01:51:34.356Z,0
2022-10-25T01:52:34.378Z,0
2022-10-25T01:53:34.402Z,0
2022-10-25T01:54:34.466Z,0
2022-10-25T01:55:34.377Z,0
2022-10-25T01:56:34.404Z,0
2022-10-25T01:57:34.414Z,0
2022-10-25T01:58:34.417Z,0
2022-10-25T01:59:34.382Z,0
2022-10-25T02:00:37.788Z,0
2022-10-25T02:01:35.611Z,0
2022-10-25T02:02:37.372Z,0
2022-10-25T02:03:34.404Z,0
2022-10-25T02:04:34.400Z,0
2022-10-25T02:05:34.403Z,0
2022-10-25T02:06:34.394Z,0
2022-10-25T02:07:34.449Z,0
2022-10-25T02:08:34.409Z,0
2022-10-25T02:09:34.387Z,0
2022-10-25T02:10:34.403Z,0
2022-10-25T02:11:34.409Z,0
2022-10-25T02:12:34.744Z,0
2022-10-25T02:13:34.454Z,0
2022-10-25T02:14:34.400Z,0
2022-10-25T02:15:34.401Z,0
2022-10-25T02:16:37.211Z,0
2022-10-25T02:17:34.409Z,0
2022-10-25T02:18:35.537Z,0
2022-10-25T02:19:34.445Z,0
2022-10-25T02:20:34.425Z,0
2022-10-25T02:21:34.450Z,0
2022-10-25T02:22:37.402Z,0
2022-10-25T02:23:34.439Z,0
2022-10-25T02:24:37.353Z,0
2022-10-25T02:25:34.425Z,0
2022-10-25T02:26:34.584Z,0
2022-10-25T02:27:38.422Z,0
2022-10-25T02:28:37.226Z,0
2022-10-25T02:29:34.424Z,0
2022-10-25T02:30:34.455Z,0
2022-10-25T02:31:34.538Z,0
2022-10-25T02:32:37.298Z,0
2022-10-25T02:33:34.454Z,0
2022-10-25T02:34:34.434Z,0
2022-10-25T02:35:34.477Z,0
2022-10-25T02:36:34.479Z,0
2022-10-25T02:37:34.438Z,0
2022-10-25T02:38:36.419Z,0
2022-10-25T02:39:38.122Z,0
2022-10-25T02:40:37.174Z,0
2022-10-25T02:41:34.459Z,0
2022-10-25T02:42:34.487Z,0
2022-10-25T02:43:37.611Z,0
2022-10-25T02:44:34.502Z,0
2022-10-25T02:45:34.450Z,0
2022-10-25T02:46:34.451Z,0
2022-10-25T02:47:34.467Z,0
2022-10-25T02:48:34.490Z,0
2022-10-25T02:49:37.468Z,0
2022-10-25T02:50:34.469Z,0
2022-10-25T02:51:34.467Z,0
2022-10-25T02:52:34.499Z,0
2022-10-25T02:53:34.481Z,0
2022-10-25T02:54:37.587Z,0
2022-10-25T02:55:34.466Z,0
2022-10-25T02:56:34.468Z,0
2022-10-25T02:57:34.481Z,0
2022-10-25T02:58:34.524Z,0
2022-10-25T02:59:34.475Z,0
2022-10-25T03:00:37.555Z,0
2022-10-25T03:01:35.256Z,0
2022-10-25T03:02:34.487Z,0
2022-10-25T03:03:34.549Z,0
2022-10-25T03:04:34.503Z,0
2022-10-25T03:05:37.244Z,0
2022-10-25T03:06:34.486Z,0
2022-10-25T03:07:34.476Z,0
2022-10-25T03:08:35.585Z,0
2022-10-25T03:09:34.486Z,0
2022-10-25T03:10:34.484Z,0
2022-10-25T03:11:34.567Z,0
2022-10-25T03:12:34.494Z,0
2022-10-25T03:13:34.492Z,0
2022-10-25T03:14:34.525Z,0
2022-10-25T03:15:34.496Z,0
2022-10-25T03:16:37.455Z,0
2022-10-25T03:17:34.500Z,0
2022-10-25T03:18:34.507Z,0
2022-10-25T03:19:34.502Z,0
2022-10-25T03:20:34.529Z,0
2022-10-25T03:21:36.540Z,0
2022-10-25T03:22:34.512Z,0
2022-10-25T03:23:34.509Z,0
2022-10-25T03:24:34.580Z,0
2022-10-25T03:25:38.649Z,0
2022-10-25T03:26:34.547Z,0
2022-10-25T03:27:37.347Z,0
2022-10-25T03:28:34.517Z,0
2022-10-25T03:29:35.564Z,0
2022-10-25T03:30:34.540Z,0
2022-10-25T03:31:35.866Z,0
2022-10-25T03:32:34.600Z,0
2022-10-25T03:33:35.697Z,0
2022-10-25T03:34:34.539Z,0
2022-10-25T03:35:34.553Z,0
2022-10-25T03:36:34.583Z,0
2022-10-25T03:37:34.526Z,0
2022-10-25T03:38:37.459Z,0
2022-10-25T03:39:34.540Z,0
2022-10-25T03:40:34.584Z,0
2022-10-25T03:41:34.560Z,0
2022-10-25T03:42:34.617Z,0
2022-10-25T03:43:35.580Z,0
2022-10-25T03:44:34.544Z,0
2022-10-25T03:45:34.556Z,0
2022-10-25T03:46:34.573Z,0
2022-10-25T03:47:34.718Z,0
2022-10-25T03:48:34.616Z,0
2022-10-25T03:49:37.584Z,0
2022-10-25T03:50:34.558Z,0
2022-10-25T03:51:34.563Z,0
2022-10-25T03:52:34.595Z,0
2022-10-25T03:53:34.750Z,0
2022-10-25T03:54:36.329Z,0
2022-10-25T03:55:34.562Z,0
2022-10-25T03:56:34.600Z,0
2022-10-25T03:57:34.623Z,0
2022-10-25T03:58:34.592Z,0
2022-10-25T03:59:34.594Z,0
2022-10-25T04:00:37.988Z,0
2022-10-25T04:01:35.271Z,0
2022-10-25T04:02:34.571Z,0
2022-10-25T04:03:34.588Z,0
2022-10-25T04:04:34.653Z,0
2022-10-25T04:05:37.455Z,0
2022-10-25T04:06:34.840Z,0
2022-10-25T04:07:34.583Z,0
2022-10-25T04:08:34.624Z,0
2022-10-25T04:09:34.783Z,0
2022-10-25T04:10:34.697Z,0
2022-10-25T04:11:37.473Z,0
2022-10-25T04:12:34.595Z,0
2022-10-25T04:13:34.608Z,0
2022-10-25T04:14:34.644Z,0
2022-10-25T04:15:34.619Z,0
2022-10-25T04:16:37.452Z,0
2022-10-25T04:17:34.637Z,0
2022-10-25T04:18:34.601Z,0
2022-10-25T04:19:34.626Z,0
2022-10-25T04:20:34.665Z,0
2022-10-25T04:21:34.627Z,0
2022-10-25T04:22:34.780Z,0
2022-10-25T04:23:34.624Z,0
2022-10-25T04:24:34.713Z,0
2022-10-25T04:25:34.619Z,0
2022-10-25T04:26:34.644Z,0
2022-10-25T04:27:37.735Z,0
2022-10-25T04:28:34.654Z,0
2022-10-25T04:29:34.637Z,0
2022-10-25T04:30:41.137Z,0
2022-10-25T04:31:34.669Z,0
2022-10-25T04:32:34.634Z,0
2022-10-25T04:33:34.626Z,0
2022-10-25T04:34:34.644Z,0
2022-10-25T04:35:34.645Z,0
2022-10-25T04:36:34.720Z,0
2022-10-25T04:37:34.652Z,0
2022-10-25T04:38:34.646Z,0
2022-10-25T04:39:34.667Z,0
2022-10-25T04:40:34.719Z,0
2022-10-25T04:41:34.651Z,0
2022-10-25T04:42:34.646Z,0
2022-10-25T04:43:37.748Z,0
2022-10-25T04:44:34.663Z,0
2022-10-25T04:45:34.657Z,0
2022-10-25T04:46:34.658Z,0
2022-10-25T04:47:34.734Z,0
2022-10-25T04:48:34.668Z,0
2022-10-25T04:49:34.687Z,0
2022-10-25T04:50:34.652Z,0
2022-10-25T04:51:34.653Z,0
2022-10-25T04:52:34.714Z,0
2022-10-25T04:53:34.739Z,0
2022-10-25T04:54:37.722Z,0
2022-10-25T04:55:34.670Z,0
2022-10-25T04:56:34.697Z,0
2022-10-25T04:57:34.668Z,0
2022-10-25T04:58:38.332Z,0
2022-10-25T04:59:38.018Z,0
2022-10-25T05:00:34.694Z,0
2022-10-25T05:01:35.422Z,0
2022-10-25T05:02:35.015Z,0
2022-10-25T05:03:34.844Z,0
2022-10-25T05:04:34.703Z,0
2022-10-25T05:05:37.683Z,0
2022-10-25T05:06:34.698Z,0
2022-10-25T05:07:34.690Z,0
2022-10-25T05:08:34.734Z,0
2022-10-25T05:09:34.727Z,0
2022-10-25T05:10:37.471Z,0
2022-10-25T05:12:34.715Z,0
2022-10-25T05:13:34.703Z,0
2022-10-25T05:14:34.733Z,0
2022-10-25T05:15:34.724Z,0
2022-10-25T05:16:37.706Z,0
2022-10-25T05:17:37.686Z,0
2022-10-25T05:18:34.731Z,0
2022-10-25T05:19:37.476Z,0
2022-10-25T05:20:34.702Z,0
2022-10-25T05:21:38.843Z,0
2022-10-25T05:22:34.760Z,0
2022-10-25T05:23:34.702Z,0
2022-10-25T05:24:34.829Z,0
2022-10-25T05:25:35.969Z,0
2022-10-25T05:26:34.750Z,0
2022-10-25T05:27:38.589Z,0
2022-10-25T05:28:34.745Z,0
2022-10-25T05:29:34.777Z,0
2022-10-25T05:30:34.738Z,0
2022-10-25T05:31:34.584Z,0
2022-10-25T05:32:35.826Z,0
2022-10-25T05:33:34.738Z,0
2022-10-25T05:34:34.832Z,0
2022-10-25T05:35:34.735Z,0
2022-10-25T05:36:34.746Z,0
2022-10-25T05:37:34.730Z,0
2022-10-25T05:38:41.591Z,0
2022-10-25T05:39:34.751Z,0
2022-10-25T05:40:34.783Z,4
2022-10-25T05:41:41.509Z,0
2022-10-25T05:42:34.753Z,0
2022-10-25T05:43:37.549Z,4
2022-10-25T05:44:34.822Z,0
2022-10-25T05:45:34.748Z,4
2022-10-25T05:46:34.772Z,4
2022-10-25T05:47:34.942Z,4
2022-10-25T05:48:34.771Z,4
2022-10-25T05:49:34.772Z,4
2022-10-25T05:50:35.035Z,4
2022-10-25T05:51:42.183Z,4
2022-10-25T05:52:34.778Z,4
2022-10-25T05:53:34.760Z,4
2022-10-25T05:54:37.803Z,8
2022-10-25T05:55:37.832Z,8
2022-10-25T05:56:34.792Z,8
2022-10-25T05:57:34.784Z,8
2022-10-25T05:58:34.783Z,12
2022-10-25T05:59:34.784Z,8
2022-10-25T06:00:35.220Z,12
2022-10-25T06:01:35.487Z,12
2022-10-25T06:02:35.137Z,12
2022-10-25T06:03:34.816Z,12
2022-10-25T06:04:34.789Z,16
2022-10-25T06:05:40.481Z,16
2022-10-25T06:06:34.796Z,16
2022-10-25T06:07:34.799Z,20
2022-10-25T06:08:34.800Z,24
2022-10-25T06:09:34.816Z,20
2022-10-25T06:10:34.880Z,20
2022-10-25T06:11:34.871Z,16
2022-10-25T06:12:34.632Z,20
2022-10-25T06:13:34.631Z,20
2022-10-25T06:14:34.800Z,24
2022-10-25T06:15:34.803Z,24
2022-10-25T06:16:37.991Z,28
2022-10-25T06:17:34.806Z,28
2022-10-25T06:18:34.803Z,28
2022-10-25T06:19:34.827Z,28
2022-10-25T06:20:35.284Z,32
2022-10-25T06:21:40.919Z,36
2022-10-25T06:22:34.802Z,40
2022-10-25T06:23:34.800Z,36
2022-10-25T06:24:34.800Z,36
2022-10-25T06:25:34.841Z,36
2022-10-25T06:26:34.816Z,32
2022-10-25T06:27:37.644Z,36
2022-10-25T06:28:34.841Z,36
2022-10-25T06:29:34.831Z,36
2022-10-25T06:30:36.019Z,40
2022-10-25T06:31:34.835Z,44
2022-10-25T06:32:37.862Z,56
2022-10-25T06:33:35.099Z,60
2022-10-25T06:34:34.835Z,72
2022-10-25T06:35:34.900Z,76
2022-10-25T06:36:35.038Z,92
2022-10-25T06:37:34.898Z,104
2022-10-25T06:38:37.597Z,132
2022-10-25T06:39:34.854Z,156
2022-10-25T06:40:34.897Z,176
2022-10-25T06:41:34.931Z,172
2022-10-25T06:42:34.853Z,164
2022-10-25T06:43:35.977Z,168
2022-10-25T06:44:34.860Z,164
2022-10-25T06:45:34.873Z,200
2022-10-25T06:46:36.172Z,196
2022-10-25T06:47:37.805Z,136
2022-10-25T06:48:35.545Z,124
2022-10-25T06:49:34.870Z,124
2022-10-25T06:50:34.906Z,128
2022-10-25T06:51:34.882Z,132
2022-10-25T06:52:34.860Z,140
2022-10-25T06:53:34.874Z,148
2022-10-25T06:54:37.721Z,172
2022-10-25T06:55:34.887Z,200
2022-10-25T06:56:34.871Z,168
2022-10-25T06:57:34.871Z,844
2022-10-25T06:58:34.865Z,104
2022-10-25T06:59:34.995Z,76
2022-10-25T07:00:34.904Z,76
2022-10-25T07:01:35.477Z,84
2022-10-25T07:02:35.389Z,80
2022-10-25T07:03:34.885Z,72
2022-10-25T07:04:34.920Z,80
2022-10-25T07:05:40.461Z,80
2022-10-25T07:06:34.978Z,76
2022-10-25T07:07:34.988Z,68
2022-10-25T07:08:34.902Z,68
2022-10-25T07:09:34.878Z,80
2022-10-25T07:10:37.671Z,100
2022-10-25T07:11:34.940Z,124
2022-10-25T07:12:34.902Z,148
2022-10-25T07:13:34.895Z,156
2022-10-25T07:14:34.996Z,172
2022-10-25T07:15:36.347Z,192
2022-10-25T07:16:34.908Z,212
2022-10-25T07:17:34.902Z,208
2022-10-25T07:18:34.905Z,220
2022-10-25T07:19:34.934Z,248
2022-10-25T07:20:34.956Z,268
2022-10-25T07:21:37.974Z,192
2022-10-25T07:22:34.932Z,212
2022-10-25T07:23:34.932Z,356
2022-10-25T07:24:34.910Z,2088
2022-10-25T07:25:34.980Z,468
2022-10-25T07:26:38.130Z,264
2022-10-25T07:27:34.945Z,256
2022-10-25T07:28:34.921Z,1064
2022-10-25T07:29:34.915Z,1324
2022-10-25T07:30:34.950Z,780
2022-10-25T07:31:34.968Z,452
2022-10-25T07:32:40.082Z,220
2022-10-25T07:33:34.929Z,220
2022-10-25T07:34:34.927Z,208
2022-10-25T07:36:16.430Z,2176
2022-10-25T07:36:34.961Z,2244
2022-10-25T07:37:37.843Z,1856
2022-10-25T07:38:34.967Z,484
2022-10-25T07:39:34.969Z,448
2022-10-25T07:40:34.973Z,1048
2022-10-25T07:41:34.938Z,472
2022-10-25T07:42:34.986Z,2352
2022-10-25T07:43:37.702Z,2368
2022-10-25T07:44:35.001Z,2380
2022-10-25T07:45:38.048Z,2360
2022-10-25T07:46:34.999Z,2312
2022-10-25T07:47:35.010Z,2268
2022-10-25T07:48:37.795Z,2244
2022-10-25T07:49:34.956Z,2232
2022-10-25T07:50:34.972Z,2232
2022-10-25T07:51:34.957Z,2212
2022-10-25T07:52:35.026Z,2200
2022-10-25T07:53:34.964Z,2192
2022-10-25T07:54:38.213Z,2180
2022-10-25T07:55:35.004Z,2168
2022-10-25T07:56:34.973Z,2156
2022-10-25T07:57:37.831Z,2148
2022-10-25T07:58:35.002Z,2140
2022-10-25T07:59:38.037Z,2140
2022-10-25T08:00:35.030Z,2132
2022-10-25T08:01:35.328Z,2124
2022-10-25T08:02:34.982Z,2108
2022-10-25T08:03:35.447Z,2104
2022-10-25T08:04:36.087Z,2096
2022-10-25T08:05:38.189Z,2080
2022-10-25T08:06:34.986Z,2064
2022-10-25T08:07:35.018Z,2052
2022-10-25T08:08:35.001Z,2068
2022-10-25T08:09:44.676Z,2024
2022-10-25T08:10:38.098Z,2012
2022-10-25T08:11:35.043Z,1996
2022-10-25T08:12:34.666Z,1992
2022-10-25T08:13:37.883Z,1984
2022-10-25T08:14:40.674Z,1964
2022-10-25T08:15:35.030Z,1956
2022-10-25T08:16:38.050Z,1944
2022-10-25T08:17:35.007Z,1944
2022-10-25T08:18:35.027Z,1928
2022-10-25T08:19:35.062Z,1916
2022-10-25T08:21:11.551Z,1896
2022-10-25T08:21:37.950Z,1896
2022-10-25T08:22:35.011Z,1884
2022-10-25T08:23:35.184Z,1888
2022-10-25T08:24:35.563Z,1880
2022-10-25T08:25:35.091Z,1872
2022-10-25T08:26:41.369Z,1860
2022-10-25T08:27:35.036Z,1860
2022-10-25T08:28:35.052Z,1860
2022-10-25T08:29:35.051Z,1852
2022-10-25T08:30:35.048Z,1840
2022-10-25T08:31:35.163Z,1836
2022-10-25T08:32:35.302Z,1832
2022-10-25T08:33:35.042Z,1820
2022-10-25T08:34:39.223Z,1804
2022-10-25T08:35:35.113Z,1792
2022-10-25T08:36:35.059Z,1792
2022-10-25T08:37:35.153Z,1780
2022-10-25T08:38:35.042Z,1776
2022-10-25T08:39:35.067Z,1784
2022-10-25T08:40:35.093Z,1788
2022-10-25T08:41:35.081Z,1760
2022-10-25T08:42:35.048Z,1756
2022-10-25T08:43:38.300Z,1744
2022-10-25T08:44:35.053Z,1740
2022-10-25T08:45:35.114Z,1736
2022-10-25T08:46:35.047Z,1732
2022-10-25T08:47:35.090Z,1720
2022-10-25T08:48:35.283Z,1720
2022-10-25T08:49:35.079Z,1708
2022-10-25T08:50:35.184Z,1704
2022-10-25T08:51:35.057Z,1708
2022-10-25T08:52:35.071Z,1708
2022-10-25T08:53:35.094Z,1700
2022-10-25T08:54:36.295Z,1700
2022-10-25T08:55:35.118Z,1696
2022-10-25T08:56:37.207Z,1712
2022-10-25T08:57:35.111Z,1704
2022-10-25T08:58:35.090Z,1704
2022-10-25T08:59:38.247Z,1712
2022-10-25T09:00:35.130Z,1708
2022-10-25T09:01:35.881Z,1708
2022-10-25T09:02:35.590Z,1688
2022-10-25T09:03:35.456Z,1688
2022-10-25T09:04:35.110Z,1676
2022-10-25T09:05:38.017Z,1688
2022-10-25T09:06:35.132Z,1700
2022-10-25T09:07:36.375Z,1704
2022-10-25T09:08:35.582Z,1692
2022-10-25T09:09:35.099Z,1692
2022-10-25T09:10:36.571Z,1680
2022-10-25T09:11:35.135Z,1688
2022-10-25T09:12:35.129Z,1688
2022-10-25T09:14:35.120Z,1688
2022-10-25T09:15:36.768Z,1696
2022-10-25T09:16:35.108Z,1712
2022-10-25T09:17:35.117Z,1736
2022-10-25T09:18:35.124Z,1304
2022-10-25T09:19:35.132Z,860
2022-10-25T09:20:35.140Z,280
2022-10-25T09:21:38.266Z,1656
2022-10-25T09:22:35.135Z,1660
2022-10-25T09:23:35.126Z,1676
2022-10-25T09:24:35.116Z,1644
2022-10-25T09:25:35.169Z,1104
2022-10-25T09:26:35.162Z,1592
2022-10-25T09:27:35.127Z,1568
2022-10-25T09:28:35.161Z,1556
2022-10-25T09:29:38.263Z,1532
2022-10-25T09:30:35.165Z,1532
2022-10-25T09:31:35.206Z,1520
2022-10-25T09:32:35.161Z,1520
2022-10-25T09:33:35.281Z,1508
2022-10-25T09:34:35.176Z,1500
2022-10-25T09:35:38.390Z,1536
2022-10-25T09:36:38.279Z,1496
2022-10-25T09:37:38.351Z,1472
2022-10-25T09:38:35.146Z,1480
2022-10-25T09:39:35.157Z,320
2022-10-25T09:40:35.181Z,1568
2022-10-25T09:41:35.273Z,1468
2022-10-25T09:42:35.155Z,1488
2022-10-25T09:43:35.193Z,1504
2022-10-25T09:44:35.227Z,1456
2022-10-25T09:45:37.287Z,1436
2022-10-25T09:46:35.177Z,1408
2022-10-25T09:47:35.293Z,1408
2022-10-25T09:48:38.210Z,1392
2022-10-25T09:49:35.165Z,1380
2022-10-25T09:50:35.204Z,792
2022-10-25T09:51:35.186Z,316
2022-10-25T09:52:35.194Z,256
2022-10-25T09:53:38.354Z,388
2022-10-25T09:54:35.179Z,1372
2022-10-25T09:55:35.264Z,348
2022-10-25T09:56:35.186Z,232
2022-10-25T09:57:35.187Z,232
2022-10-25T09:58:35.210Z,232
2022-10-25T09:59:38.517Z,228
2022-10-25T10:00:35.250Z,228
2022-10-25T10:01:36.039Z,224
2022-10-25T10:02:35.916Z,228
2022-10-25T10:03:35.251Z,228
2022-10-25T10:04:38.224Z,224
2022-10-25T10:05:35.220Z,236
2022-10-25T10:06:35.220Z,244
2022-10-25T10:07:35.209Z,1276
2022-10-25T10:08:35.215Z,1248
2022-10-25T10:09:35.263Z,1244
2022-10-25T10:10:36.329Z,1232
2022-10-25T10:11:38.239Z,1228
2022-10-25T10:12:35.217Z,1220
2022-10-25T10:13:35.232Z,1220
2022-10-25T10:14:35.219Z,1212
2022-10-25T10:15:38.211Z,1220
2022-10-25T10:16:35.258Z,1220
2022-10-25T10:17:35.263Z,1068
2022-10-25T10:18:35.270Z,1232
2022-10-25T10:19:35.225Z,1244
2022-10-25T10:20:35.246Z,1248
2022-10-25T10:21:38.075Z,1236
2022-10-25T10:22:35.245Z,1260
2022-10-25T10:23:35.238Z,440
2022-10-25T10:24:35.314Z,368
2022-10-25T10:25:35.283Z,376
2022-10-25T10:26:38.147Z,384
2022-10-25T10:27:35.237Z,776
2022-10-25T10:28:35.261Z,1296
2022-10-25T10:29:35.242Z,1268
2022-10-25T10:30:35.251Z,928
2022-10-25T10:31:35.284Z,816
2022-10-25T10:32:38.571Z,480
2022-10-25T10:33:35.260Z,404
2022-10-25T10:34:35.258Z,368
2022-10-25T10:35:35.406Z,368
2022-10-25T10:36:35.282Z,452
2022-10-25T10:37:38.036Z,472
2022-10-25T10:38:35.323Z,572
2022-10-25T10:39:35.289Z,1080
2022-10-25T10:40:35.313Z,1188
2022-10-25T10:41:35.432Z,760
2022-10-25T10:42:36.440Z,972
2022-10-25T10:43:38.160Z,440
2022-10-25T10:44:36.402Z,760
2022-10-25T10:45:35.282Z,760
2022-10-25T10:46:35.394Z,728
2022-10-25T10:47:35.307Z,540
2022-10-25T10:48:44.324Z,472
2022-10-25T10:49:35.290Z,468
2022-10-25T10:50:35.496Z,588
2022-10-25T10:51:52.016Z,484
2022-10-25T10:52:35.332Z,476
2022-10-25T10:53:35.309Z,512
2022-10-25T10:54:35.320Z,584
2022-10-25T10:55:35.139Z,716
2022-10-25T10:56:35.358Z,644
2022-10-25T10:57:35.518Z,724
2022-10-25T10:58:35.290Z,556
2022-10-25T10:59:38.167Z,532
2022-10-25T11:00:35.310Z,516
2022-10-25T11:01:36.078Z,620
2022-10-25T11:02:36.215Z,440
2022-10-25T11:03:35.325Z,424
2022-10-25T11:04:35.434Z,392
2022-10-25T11:05:35.338Z,372
2022-10-25T11:06:35.383Z,380
2022-10-25T11:07:35.444Z,388
2022-10-25T11:08:35.329Z,416
2022-10-25T11:09:35.316Z,472
2022-10-25T11:10:38.377Z,524
2022-10-25T11:11:35.366Z,812
2022-10-25T11:12:41.247Z,528
2022-10-25T11:13:35.567Z,516
2022-10-25T11:14:35.446Z,572
2022-10-25T11:15:35.338Z,528
2022-10-25T11:16:35.374Z,1240
2022-10-25T11:17:38.208Z,452
2022-10-25T11:18:35.335Z,428
2022-10-25T11:19:38.322Z,364
2022-10-25T11:20:35.475Z,356
2022-10-25T11:21:39.908Z,360
2022-10-25T11:22:39.920Z,372
2022-10-25T11:23:35.420Z,372
2022-10-25T11:24:35.334Z,372
2022-10-25T11:25:38.409Z,1204
2022-10-25T11:26:36.571Z,724
2022-10-25T11:27:39.732Z,1224
2022-10-25T11:28:35.360Z,396
2022-10-25T11:29:44.456Z,604
2022-10-25T11:30:35.392Z,576
2022-10-25T11:31:35.407Z,388
2022-10-25T11:32:41.346Z,364
2022-10-25T11:33:35.387Z,352
2022-10-25T11:34:35.354Z,352
2022-10-25T11:35:35.474Z,452
2022-10-25T11:36:35.500Z,1020
2022-10-25T11:37:38.364Z,1084
2022-10-25T11:38:35.378Z,1012
2022-10-25T11:39:35.374Z,972
2022-10-25T11:40:35.383Z,960
2022-10-25T11:41:35.420Z,972
2022-10-25T11:42:35.394Z,1004
2022-10-25T11:43:35.432Z,900
2022-10-25T11:44:35.369Z,500
2022-10-25T11:45:35.667Z,788
2022-10-25T11:46:35.397Z,860
2022-10-25T11:47:43.116Z,700
2022-10-25T11:48:38.281Z,512
2022-10-25T11:49:38.433Z,372
2022-10-25T11:50:35.388Z,908
2022-10-25T11:51:35.556Z,892
2022-10-25T11:52:35.512Z,472
2022-10-25T11:53:35.409Z,780
2022-10-25T11:54:35.447Z,868
2022-10-25T11:55:36.470Z,868
2022-10-25T11:56:35.440Z,868
2022-10-25T11:57:35.431Z,876
2022-10-25T11:58:35.453Z,872
2022-10-25T11:59:35.430Z,876
2022-10-25T12:00:35.460Z,872
2022-10-25T12:01:35.960Z,864
2022-10-25T12:02:35.679Z,860
2022-10-25T12:03:35.427Z,852
2022-10-25T12:04:41.588Z,856
2022-10-25T12:05:35.459Z,868
2022-10-25T12:06:35.500Z,472
2022-10-25T12:07:35.563Z,492
2022-10-25T12:08:35.599Z,376
2022-10-25T12:09:35.476Z,368
2022-10-25T12:10:35.581Z,376
2022-10-25T12:11:35.495Z,524
2022-10-25T12:12:35.424Z,616
2022-10-25T12:13:35.431Z,900
2022-10-25T12:14:35.437Z,496
2022-10-25T12:15:38.595Z,520
2022-10-25T12:16:35.503Z,340
2022-10-25T12:17:35.694Z,424
2022-10-25T12:18:35.454Z,400
2022-10-25T12:19:35.445Z,636
2022-10-25T12:20:39.565Z,768
2022-10-25T12:21:35.476Z,588
2022-10-25T12:22:35.456Z,420
2022-10-25T12:23:35.572Z,816
2022-10-25T12:24:35.677Z,616
2022-10-25T12:25:35.466Z,816
2022-10-25T12:26:38.635Z,792
2022-10-25T12:27:38.291Z,780
2022-10-25T12:28:35.454Z,772
2022-10-25T12:29:35.529Z,768
2022-10-25T12:30:35.500Z,768
2022-10-25T12:31:38.400Z,764
2022-10-25T12:32:35.472Z,684
2022-10-25T12:33:35.754Z,696
2022-10-25T12:34:35.464Z,740
2022-10-25T12:35:35.509Z,736
2022-10-25T12:36:35.579Z,736
2022-10-25T12:37:38.663Z,704
2022-10-25T12:38:35.473Z,720
2022-10-25T12:39:35.626Z,696
2022-10-25T12:40:40.472Z,696
2022-10-25T12:41:35.495Z,720
2022-10-25T12:42:35.699Z,732
2022-10-25T12:43:35.473Z,744
2022-10-25T12:44:35.482Z,632
2022-10-25T12:45:35.536Z,752
2022-10-25T12:46:35.517Z,792
2022-10-25T12:47:38.557Z,792
2022-10-25T12:48:38.702Z,740
2022-10-25T12:49:35.738Z,752
2022-10-25T12:50:35.516Z,768
2022-10-25T12:51:44.659Z,768
2022-10-25T12:52:35.485Z,764
2022-10-25T12:53:38.263Z,760
2022-10-25T12:54:35.506Z,756
2022-10-25T12:55:35.629Z,744
2022-10-25T12:56:35.658Z,732
2022-10-25T12:57:35.749Z,784
2022-10-25T12:58:35.523Z,784
2022-10-25T12:59:38.563Z,708
2022-10-25T13:00:35.556Z,700
2022-10-25T13:01:35.799Z,700
2022-10-25T13:02:35.568Z,704
2022-10-25T13:03:35.534Z,712
2022-10-25T13:04:38.901Z,712
2022-10-25T13:05:35.525Z,712
2022-10-25T13:06:35.536Z,696
2022-10-25T13:07:35.561Z,684
2022-10-25T13:08:35.550Z,696
2022-10-25T13:09:35.523Z,712
2022-10-25T13:10:35.546Z,740
2022-10-25T13:11:35.686Z,740
2022-10-25T13:12:35.678Z,748
2022-10-25T13:13:35.539Z,752
2022-10-25T13:14:35.546Z,756
2022-10-25T13:15:38.597Z,748
2022-10-25T13:16:35.539Z,420
2022-10-25T13:17:35.583Z,832
2022-10-25T13:18:35.547Z,824
2022-10-25T13:20:01.253Z,356
2022-10-25T13:20:35.577Z,328
2022-10-25T13:21:35.551Z,720
2022-10-25T13:22:42.239Z,820
2022-10-25T13:23:35.584Z,532
2022-10-25T13:24:35.658Z,300
2022-10-25T13:25:35.619Z,456
2022-10-25T13:26:38.769Z,420
2022-10-25T13:27:35.801Z,296
2022-10-25T13:28:40.819Z,244
2022-10-25T13:29:35.700Z,216
2022-10-25T13:30:37.071Z,200
2022-10-25T13:31:36.825Z,188
2022-10-25T13:32:36.654Z,176
2022-10-25T13:33:39.408Z,172
2022-10-25T13:34:35.772Z,164
2022-10-25T13:35:35.949Z,164
2022-10-25T13:36:35.641Z,148
2022-10-25T13:37:39.571Z,144
2022-10-25T13:38:41.937Z,164
2022-10-25T13:39:35.592Z,176
2022-10-25T13:40:35.627Z,180
2022-10-25T13:41:35.759Z,196
2022-10-25T13:42:35.774Z,200
2022-10-25T13:43:35.590Z,192
2022-10-25T13:44:35.710Z,184
2022-10-25T13:45:39.537Z,176
2022-10-25T13:46:35.772Z,168
2022-10-25T13:47:38.368Z,164
2022-10-25T13:48:38.508Z,152
2022-10-25T13:49:35.676Z,148
2022-10-25T13:50:35.607Z,140
2022-10-25T13:51:35.907Z,136
2022-10-25T13:52:35.643Z,128
2022-10-25T13:53:35.847Z,128
2022-10-25T13:54:35.721Z,124
2022-10-25T13:55:35.621Z,128
2022-10-25T13:56:35.624Z,128
2022-10-25T13:57:39.754Z,124
2022-10-25T13:58:38.570Z,120
2022-10-25T13:59:38.495Z,120
2022-10-25T14:00:36.081Z,112
2022-10-25T14:01:36.452Z,116
2022-10-25T14:02:35.730Z,120
2022-10-25T14:03:35.634Z,132
2022-10-25T14:04:38.720Z,136
2022-10-25T14:05:39.449Z,152
2022-10-25T14:06:35.633Z,156
2022-10-25T14:07:35.759Z,160
2022-10-25T14:08:35.652Z,208
2022-10-25T14:09:35.622Z,212